Time;durP1;ratioP1;P1;durP2;ratioP2;P2;SDS_P1;SDS_P2;PMS_P1;PMS_P2;Temp;Humidity;BMP_temperature;BMP_pressure;BME280_temperature;BME280_humidity;BME280_pressure;Samples;Min_cycle;Max_cycle;Signal;HPM_P1;HPM_P2
2022/04/08 00:00:58;;;;;;;4.30;2.30;;;;;;;9.21;100.00;94772.00;5067725;28;20066;-58
2022/04/08 00:03:26;;;;;;;2.37;1.80;;;;;;;8.64;100.00;94754.88;5069043;28;20064;-54
2022/04/08 00:05:55;;;;;;;2.33;2.13;;;;;;;8.63;100.00;94741.88;5068420;28;20494;-52
2022/04/08 00:08:24;;;;;;;5.25;2.42;;;;;;;8.60;100.00;94718.59;5069477;28;20693;-53
2022/04/08 00:10:52;;;;;;;2.72;2.08;;;;;;;8.58;100.00;94760.81;5069544;28;20131;-53
2022/04/08 00:13:22;;;;;;;4.63;2.20;;;;;;;8.55;100.00;94735.69;5070314;28;19923;-49
2022/04/08 00:15:50;;;;;;;3.63;1.90;;;;;;;8.54;100.00;94756.91;5064968;28;20465;-53
2022/04/08 00:18:19;;;;;;;6.32;2.35;;;;;;;8.51;100.00;94746.75;5067124;28;20506;-53
2022/04/08 00:20:48;;;;;;;4.15;2.42;;;;;;;8.49;100.00;94762.66;5069646;28;20079;-58
2022/04/08 00:23:16;;;;;;;8.02;2.53;;;;;;;8.63;100.00;94776.03;5068612;28;20111;-54
2022/04/08 00:25:45;;;;;;;8.63;2.72;;;;;;;8.44;100.00;94756.31;5069809;28;20718;-52
2022/04/08 00:28:13;;;;;;;3.63;2.25;;;;;;;8.47;100.00;94742.84;5063962;28;20074;-48
2022/04/08 00:30:43;;;;;;;3.42;2.40;;;;;;;8.50;100.00;94731.97;5067781;28;20056;-47
2022/04/08 00:33:11;;;;;;;2.55;2.10;;;;;;;8.57;100.00;94767.06;5068877;28;20057;-58
2022/04/08 00:35:39;;;;;;;4.18;2.42;;;;;;;8.37;100.00;94735.13;5067198;28;20064;-51
2022/04/08 00:38:08;;;;;;;2.72;2.00;;;;;;;8.31;100.00;94762.09;5061440;28;20690;-53
2022/04/08 00:40:36;;;;;;;8.13;2.67;;;;;;;8.23;100.00;94778.72;5071966;28;20059;-54
2022/04/08 00:43:15;;;;;;;4.70;2.22;;;;;;;8.23;100.00;94770.00;5080626;28;20063;-55
2022/04/08 00:45:44;;;;;;;2.63;2.42;;;;;;;8.19;100.00;94772.16;5070818;28;20079;-54
2022/04/08 00:48:13;;;;;;;2.50;2.30;;;;;;;8.13;100.00;94785.16;5066835;28;20064;-55
2022/04/08 00:50:43;;;;;;;3.75;2.35;;;;;;;8.18;100.00;94795.94;5068496;28;20079;-49
2022/04/08 00:53:11;;;;;;;5.00;2.47;;;;;;;8.18;100.00;94798.56;5080366;28;20072;-50
2022/04/08 00:55:40;;;;;;;6.18;3.13;;;;;;;8.11;100.00;94808.94;5061732;28;20915;-52
2022/04/08 00:58:08;;;;;;;7.22;2.75;;;;;;;8.20;100.00;94804.50;5065761;28;20450;-54
2022/04/08 01:00:37;;;;;;;3.03;2.17;;;;;;;8.09;100.00;94811.75;5067555;28;20048;-49
2022/04/08 01:03:07;;;;;;;3.50;2.28;;;;;;;8.28;100.00;94823.63;5070091;28;20071;-50
2022/04/08 01:05:36;;;;;;;4.57;2.43;;;;;;;8.21;100.00;94829.75;5063911;28;20072;-54
2022/04/08 01:08:06;;;;;;;6.27;2.53;;;;;;;8.25;100.00;94804.78;5067988;28;20076;-48
2022/04/08 01:10:35;;;;;;;5.30;2.67;;;;;;;8.36;100.00;94811.44;5066959;28;20064;-52
2022/04/08 01:13:03;;;;;;;4.95;2.30;;;;;;;8.32;100.00;94801.28;5064974;28;20068;-50
2022/04/08 01:15:32;;;;;;;3.88;2.20;;;;;;;8.31;100.00;94809.34;5066798;28;20060;-49
2022/04/08 01:18:00;;;;;;;6.45;2.50;;;;;;;8.38;100.00;94814.78;5067267;28;20071;-56
2022/04/08 01:20:30;;;;;;;4.40;3.15;;;;;;;8.44;100.00;94798.34;5066529;28;20039;-54
2022/04/08 01:22:58;;;;;;;8.52;2.88;;;;;;;8.54;100.00;94810.25;5068020;28;20064;-52
2022/04/08 01:25:28;;;;;;;3.08;2.33;;;;;;;8.56;100.00;94820.56;5066325;28;20466;-49
2022/04/08 01:27:56;;;;;;;3.45;2.45;;;;;;;8.67;100.00;94835.97;5067864;28;20570;-52
2022/04/08 01:30:25;;;;;;;3.20;2.22;;;;;;;8.71;100.00;94818.06;5066931;28;20068;-53
2022/04/08 01:32:53;;;;;;;2.90;2.50;;;;;;;8.67;100.00;94841.22;5067654;28;20080;-52
2022/04/08 01:35:21;;;;;;;4.30;2.75;;;;;;;8.64;100.00;94803.97;5069309;28;20072;-54
2022/04/08 01:37:50;;;;;;;5.25;2.35;;;;;;;8.63;100.00;94829.41;5070243;28;20408;-49
2022/04/08 01:40:18;;;;;;;5.60;2.28;;;;;;;8.76;100.00;94857.75;5069199;28;20067;-55
2022/04/08 01:42:48;;;;;;;5.03;2.10;;;;;;;8.63;100.00;94854.88;5069185;28;20060;-58
2022/04/08 01:45:16;;;;;;;5.40;2.63;;;;;;;8.82;100.00;94867.59;5065727;28;20057;-56
2022/04/08 01:47:46;;;;;;;4.40;2.13;;;;;;;8.83;100.00;94865.78;5067822;28;20060;-57
2022/04/08 01:50:18;;;;;;;5.85;3.25;;;;;;;8.75;100.00;94864.81;5068091;28;20086;-55
2022/04/08 01:52:46;;;;;;;2.80;2.03;;;;;;;8.73;100.00;94871.22;5067384;28;20086;-55
2022/04/08 01:55:15;;;;;;;6.15;2.58;;;;;;;8.89;100.00;94863.28;5067678;28;20056;-57
2022/04/08 01:57:43;;;;;;;2.90;2.08;;;;;;;8.91;100.00;94863.94;5066371;28;20052;-57
2022/04/08 02:00:14;;;;;;;3.75;2.17;;;;;;;8.83;100.00;94881.53;5066416;28;20071;-55
2022/04/08 02:02:42;;;;;;;;;;;;;;;8.92;100.00;94885.78;5065901;28;20059;-55
2022/04/08 02:05:11;;;;;;;2.25;2.05;;;;;;;8.90;100.00;94899.06;5067005;28;19921;-57
2022/04/08 02:07:39;;;;;;;3.92;2.15;;;;;;;8.82;100.00;94883.34;5065789;28;20580;-57
2022/04/08 02:10:08;;;;;;;2.35;1.95;;;;;;;8.80;100.00;94896.66;5067605;28;20052;-58
2022/04/08 02:12:36;;;;;;;4.70;2.40;;;;;;;8.80;100.00;94869.56;5067099;28;20506;-59
2022/04/08 02:15:06;;;;;;;4.45;2.20;;;;;;;8.73;100.00;94892.25;5073617;28;20459;-57
2022/04/08 02:17:36;;;;;;;4.90;2.40;;;;;;;8.77;100.00;94881.25;5063517;28;20507;-55
2022/04/08 02:20:08;;;;;;;6.72;2.30;;;;;;;8.85;100.00;94892.72;5063622;28;20449;-58
2022/04/08 02:22:36;;;;;;;3.25;2.30;;;;;;;8.80;100.00;94891.41;5064898;28;20509;-55
2022/04/08 02:25:05;;;;;;;5.32;2.38;;;;;;;8.80;100.00;94898.47;5061586;28;20308;-53
2022/04/08 02:27:34;;;;;;;8.68;2.38;;;;;;;8.82;100.00;94907.00;5063271;28;20640;-59
2022/04/08 02:30:02;;;;;;;3.70;2.00;;;;;;;8.82;100.00;94908.81;5064787;28;20068;-57
2022/04/08 02:32:30;;;;;;;3.60;2.28;;;;;;;8.70;100.00;94913.63;5066564;28;20071;-57
2022/04/08 02:35:00;;;;;;;4.65;2.47;;;;;;;8.66;100.00;94902.63;5065075;28;20108;-56
2022/04/08 02:37:28;;;;;;;7.88;2.15;;;;;;;8.67;100.00;94906.91;5067368;28;20080;-55
2022/04/08 02:39:56;;;;;;;5.22;2.75;;;;;;;8.72;100.00;94920.34;5068437;28;20083;-60
2022/04/08 02:42:25;;;;;;;6.03;2.30;;;;;;;8.77;100.00;94909.31;5063438;28;20064;-52
2022/04/08 02:44:53;;;;;;;4.20;1.90;;;;;;;8.72;100.00;94911.66;5068268;28;20087;-58
2022/04/08 02:47:21;;;;;;;3.70;2.20;;;;;;;8.77;100.00;94901.44;5070955;28;20088;-54
2022/04/08 02:49:50;;;;;;;6.25;2.28;;;;;;;8.77;100.00;94910.16;5069424;28;20068;-56
2022/04/08 02:52:19;;;;;;;7.35;2.28;;;;;;;8.73;100.00;94911.47;5069028;28;20411;-57
2022/04/08 02:54:47;;;;;;;5.18;2.00;;;;;;;8.62;100.00;94908.41;5063906;28;20447;-55
2022/04/08 02:57:16;;;;;;;3.42;2.20;;;;;;;8.67;100.00;94927.94;5066791;28;20095;-59
2022/04/08 02:59:44;;;;;;;4.75;2.20;;;;;;;8.79;100.00;94933.63;5064580;28;20079;-60
2022/04/08 03:02:12;;;;;;;7.53;3.00;;;;;;;8.74;100.00;94915.75;5067545;28;20503;-58
2022/04/08 03:04:41;;;;;;;3.40;2.10;;;;;;;8.77;100.00;94917.19;5064998;28;20076;-55
2022/04/08 03:07:09;;;;;;;4.93;2.30;;;;;;;8.88;100.00;94924.72;5067093;28;21042;-55
2022/04/08 03:09:38;;;;;;;5.70;2.20;;;;;;;8.58;100.00;94921.06;5068992;28;20067;-52
2022/04/08 03:12:07;;;;;;;6.30;2.55;;;;;;;8.81;100.00;94931.66;5066510;28;20506;-57
2022/04/08 03:14:35;;;;;;;5.35;2.50;;;;;;;8.78;100.00;94929.38;5068086;28;20087;-53
2022/04/08 03:17:04;;;;;;;4.60;2.20;;;;;;;8.77;100.00;94930.34;5064306;28;20088;-58
2022/04/08 03:19:32;;;;;;;4.97;2.35;;;;;;;8.78;100.00;94943.31;5066098;28;20375;-53
2022/04/08 03:22:01;;;;;;;4.53;2.38;;;;;;;8.73;100.00;94945.63;5066357;28;20068;-58
2022/04/08 03:24:30;;;;;;;5.88;2.50;;;;;;;8.74;100.00;94946.44;5068364;28;20071;-56
2022/04/08 03:27:00;;;;;;;3.13;2.20;;;;;;;8.59;100.00;94940.28;5067908;28;20159;-58
2022/04/08 03:29:28;;;;;;;6.85;2.67;;;;;;;8.78;100.00;94937.25;5063375;28;20479;-58
2022/04/08 03:31:56;;;;;;;2.65;2.03;;;;;;;8.74;100.00;94949.91;5067247;28;20060;-54
2022/04/08 03:34:25;;;;;;;5.57;2.72;;;;;;;8.64;100.00;94940.59;5066802;28;20064;-51
2022/04/08 03:36:53;;;;;;;7.13;2.40;;;;;;;8.46;100.00;94956.56;5065689;28;20155;-55
2022/04/08 03:39:22;;;;;;;3.75;2.05;;;;;;;8.48;100.00;94951.97;5070388;28;20462;-57
2022/04/08 03:41:51;;;;;;;3.78;2.42;;;;;;;8.46;100.00;94946.88;5068448;28;20095;-52
2022/04/08 03:44:21;;;;;;;7.32;2.20;;;;;;;8.42;100.00;94931.63;5070065;28;20101;-55
2022/04/08 03:46:49;;;;;;;3.57;2.50;;;;;;;8.47;100.00;94958.22;5067422;28;20079;-56
2022/04/08 03:49:17;;;;;;;3.88;2.20;;;;;;;8.61;100.00;94973.28;5064578;28;20447;-53
2022/04/08 03:51:47;;;;;;;3.40;2.50;;;;;;;8.46;100.00;94967.06;5061196;28;20080;-52
2022/04/08 03:54:18;;;;;;;4.10;2.50;;;;;;;8.61;100.00;94982.97;5065158;28;20075;-58
2022/04/08 03:56:46;;;;;;;2.50;2.30;;;;;;;8.44;100.00;94972.50;5062229;28;20091;-53
2022/04/08 03:59:16;;;;;;;4.57;2.28;;;;;;;8.50;100.00;94968.41;5063101;28;20087;-54
2022/04/08 04:01:46;;;;;;;5.03;2.40;;;;;;;8.49;100.00;94977.25;5060465;28;20075;-53
2022/04/08 04:04:16;;;;;;;9.35;2.80;;;;;;;8.68;100.00;94986.56;5061908;28;20134;-56
2022/04/08 04:06:44;;;;;;;5.80;2.55;;;;;;;8.61;100.00;94983.78;5058128;28;20091;-59
2022/04/08 04:09:12;;;;;;;5.43;2.72;;;;;;;8.49;100.00;94980.69;5067119;28;20613;-54
2022/04/08 04:11:41;;;;;;;2.65;2.40;;;;;;;8.56;100.00;94986.09;5068845;28;20072;-55
2022/04/08 04:14:09;;;;;;;4.63;2.60;;;;;;;8.69;100.00;94996.06;5069230;28;20568;-53
2022/04/08 04:16:37;;;;;;;8.02;3.20;;;;;;;8.49;100.00;94983.31;5076319;28;20079;-57
2022/04/08 04:19:07;;;;;;;6.55;2.85;;;;;;;8.70;100.00;94989.81;5063944;28;20086;-58
2022/04/08 04:21:36;;;;;;;4.78;2.67;;;;;;;8.62;100.00;94992.50;5063861;28;20066;-57
2022/04/08 04:24:05;;;;;;;5.68;2.63;;;;;;;8.83;100.00;94999.81;5070534;28;20060;-54
2022/04/08 04:26:33;;;;;;;9.27;3.28;;;;;;;8.67;100.00;95005.94;5064458;28;20080;-55
2022/04/08 04:29:01;;;;;;;9.10;3.00;;;;;;;8.47;100.00;95002.88;5070074;28;20284;-50
2022/04/08 04:31:29;;;;;;;6.43;2.72;;;;;;;8.77;100.00;95017.91;5065616;28;20479;-55
2022/04/08 04:33:58;;;;;;;6.75;2.80;;;;;;;8.60;100.00;95012.84;5071193;28;20079;-53
2022/04/08 04:36:27;;;;;;;7.53;2.50;;;;;;;8.72;100.00;95016.78;5069885;28;20114;-52
2022/04/08 04:38:56;;;;;;;5.28;2.72;;;;;;;8.87;100.00;95016.88;5070103;28;20056;-54
2022/04/08 04:41:24;;;;;;;7.35;2.75;;;;;;;8.77;100.00;95014.44;5069359;28;20083;-51
2022/04/08 04:43:52;;;;;;;7.90;2.92;;;;;;;8.91;100.00;95021.66;5070089;28;20083;-51
2022/04/08 04:46:25;;;;;;;6.00;2.42;;;;;;;8.78;100.00;95018.72;5067216;28;20073;-54
2022/04/08 04:48:54;;;;;;;5.65;2.88;;;;;;;8.82;100.00;95012.13;5069738;28;20078;-56
2022/04/08 04:51:22;;;;;;;5.32;2.60;;;;;;;8.70;100.00;95016.09;5069852;28;20356;-53
2022/04/08 04:53:52;;;;;;;3.15;2.00;;;;;;;8.73;100.00;95021.03;5069855;28;20102;-48
2022/04/08 04:56:20;;;;;;;5.43;2.20;;;;;;;8.72;100.00;95020.22;5070372;28;20077;-50
2022/04/08 04:58:48;;;;;;;5.55;2.70;;;;;;;8.86;100.00;95033.66;5067250;28;20110;-54
2022/04/08 05:01:17;;;;;;;4.63;2.30;;;;;;;8.87;100.00;95030.03;5067768;28;20102;-54
2022/04/08 05:03:45;;;;;;;5.18;2.20;;;;;;;8.85;100.00;95032.03;5068143;28;20514;-53
2022/04/08 05:06:14;;;;;;;5.93;2.83;;;;;;;8.86;100.00;95038.91;5069097;28;20521;-52
2022/04/08 05:08:42;;;;;;;3.92;2.00;;;;;;;8.93;100.00;95031.97;5069340;28;20099;-53
2022/04/08 05:11:11;;;;;;;2.92;1.98;;;;;;;8.98;100.00;95041.00;5069939;28;20063;-53
2022/04/08 05:13:40;;;;;;;3.33;2.50;;;;;;;8.94;100.00;95047.56;5064593;28;20072;-54
2022/04/08 05:16:08;;;;;;;1.85;1.75;;;;;;;8.92;100.00;95035.59;5069702;28;20074;-51
2022/04/08 05:18:37;;;;;;;2.63;2.00;;;;;;;8.88;100.00;95040.38;5068982;28;20060;-54
2022/04/08 05:21:06;;;;;;;3.20;1.80;;;;;;;8.99;100.00;95040.00;5069471;28;20087;-54
2022/04/08 05:23:34;;;;;;;6.60;2.40;;;;;;;8.73;100.00;95044.69;5066960;28;20071;-54
2022/04/08 05:26:02;;;;;;;3.42;1.70;;;;;;;8.80;100.00;95056.97;5068636;28;20702;-50
2022/04/08 05:28:32;;;;;;;5.75;2.28;;;;;;;8.93;100.00;95056.44;5067606;28;20063;-52
2022/04/08 05:31:00;;;;;;;3.55;2.20;;;;;;;8.98;100.00;95066.44;5069510;28;20422;-52
2022/04/08 05:33:29;;;;;;;3.38;2.20;;;;;;;8.88;100.00;95058.78;5069331;28;20459;-52
2022/04/08 05:35:57;;;;;;;5.05;2.00;;;;;;;9.01;100.00;95072.19;5069011;28;20067;-52
2022/04/08 05:38:25;;;;;;;7.40;2.42;;;;;;;8.95;100.00;95069.44;5069035;28;20469;-54
2022/04/08 05:40:54;;;;;;;2.80;2.00;;;;;;;8.93;100.00;95066.16;5068975;28;20068;-56
2022/04/08 05:43:22;;;;;;;2.15;1.80;;;;;;;8.89;100.00;95072.75;5063438;28;20067;-52
2022/04/08 05:45:52;;;;;;;4.35;1.92;;;;;;;9.02;100.00;95078.28;5090544;28;20075;-57
2022/04/08 05:48:20;;;;;;;3.67;2.15;;;;;;;8.94;100.00;95076.50;5068377;28;20064;-56
2022/04/08 05:50:49;;;;;;;3.47;2.10;;;;;;;8.75;100.00;95088.22;5068645;28;20083;-54
2022/04/08 05:53:17;;;;;;;5.13;2.17;;;;;;;8.73;100.00;95084.91;5069388;28;20402;-57
2022/04/08 05:56:04;;;;;;;3.50;2.00;;;;;;;8.88;100.00;95095.59;5068157;28;20072;-54
2022/04/08 05:58:33;;;;;;;3.47;2.08;;;;;;;8.81;100.00;95097.25;5066883;28;20082;-52
2022/04/08 06:01:03;;;;;;;5.65;2.20;;;;;;;8.90;100.00;95100.66;5068521;28;20063;-55
2022/04/08 06:03:32;;;;;;;2.75;1.98;;;;;;;8.90;100.00;95108.53;5072358;28;20040;-54
2022/04/08 06:06:00;;;;;;;2.63;1.90;;;;;;;8.70;100.00;95118.59;5068698;28;20063;-55
2022/04/08 06:08:28;;;;;;;3.45;2.13;;;;;;;9.14;100.00;95105.03;5068589;28;20084;-53
2022/04/08 06:10:57;;;;;;;5.03;2.28;;;;;;;9.09;100.00;95112.63;5068557;28;20067;-53
2022/04/08 06:13:26;;;;;;;3.28;2.10;;;;;;;8.73;100.00;95107.75;5067906;28;20068;-56
2022/04/08 06:15:55;;;;;;;5.05;2.10;;;;;;;8.96;100.00;95121.84;5067365;28;20443;-52
2022/04/08 06:18:25;;;;;;;7.30;2.40;;;;;;;9.11;100.00;95124.59;5062618;28;20127;-52
2022/04/08 06:20:53;;;;;;;5.75;2.22;;;;;;;9.36;100.00;95127.16;5068811;28;20521;-56
2022/04/08 06:23:22;;;;;;;5.72;2.47;;;;;;;9.47;100.00;95122.34;5066278;28;20076;-56
2022/04/08 06:25:50;;;;;;;4.55;2.10;;;;;;;8.91;100.00;95120.69;5068481;28;20067;-52
2022/04/08 06:28:18;;;;;;;5.10;1.92;;;;;;;8.98;100.00;95121.66;5068035;28;20060;-55
2022/04/08 06:30:47;;;;;;;10.20;2.33;;;;;;;9.10;100.00;95107.19;5068397;28;20537;-54
2022/04/08 06:33:16;;;;;;;7.25;2.38;;;;;;;9.18;100.00;95136.06;5070811;28;20142;-54
2022/04/08 06:35:45;;;;;;;4.82;2.13;;;;;;;9.19;100.00;95118.50;5067969;28;20084;-52
2022/04/08 06:38:14;;;;;;;3.60;2.17;;;;;;;9.29;100.00;95113.88;5066057;28;20111;-58
2022/04/08 06:40:42;;;;;;;4.30;2.20;;;;;;;9.31;100.00;95126.84;5068529;28;20064;-54
2022/04/08 06:43:11;;;;;;;5.13;2.15;;;;;;;9.00;100.00;95123.16;5066768;28;20379;-53
2022/04/08 06:45:39;;;;;;;6.35;2.58;;;;;;;9.28;100.00;95126.19;5068316;28;20070;-50
2022/04/08 06:48:08;;;;;;;3.90;2.17;;;;;;;9.22;100.00;95121.63;5067405;28;20056;-51
2022/04/08 06:50:36;;;;;;;5.05;2.30;;;;;;;8.94;100.00;95123.81;5065406;28;20530;-56
2022/04/08 06:53:07;;;;;;;6.70;2.35;;;;;;;9.02;100.00;95131.69;5068853;28;20060;-54
2022/04/08 06:55:35;;;;;;;3.65;2.53;;;;;;;8.89;100.00;95131.38;5068284;28;20609;-54
2022/04/08 06:58:04;;;;;;;3.45;1.90;;;;;;;9.21;100.00;95127.84;5065034;28;20071;-53
2022/04/08 07:00:33;;;;;;;4.78;2.15;;;;;;;9.00;100.00;95127.59;5068610;28;20068;-57
2022/04/08 07:03:01;;;;;;;4.07;2.10;;;;;;;9.01;100.00;95123.97;5067773;28;20536;-55
2022/04/08 07:05:30;;;;;;;8.48;2.53;;;;;;;9.10;100.00;95132.66;5069634;28;20079;-51
2022/04/08 07:07:58;;;;;;;7.45;2.50;;;;;;;9.02;100.00;95128.25;5067623;28;20072;-56
2022/04/08 07:10:28;;;;;;;5.07;2.17;;;;;;;9.14;100.00;95112.94;5067973;28;20068;-51
2022/04/08 07:12:57;;;;;;;5.00;2.25;;;;;;;9.06;100.00;95118.22;5067719;28;20071;-53
2022/04/08 07:15:25;;;;;;;3.55;2.30;;;;;;;9.17;100.00;95123.94;5067950;28;20064;-56
2022/04/08 07:17:53;;;;;;;3.95;2.10;;;;;;;9.37;100.00;95119.09;5066632;28;20068;-54
2022/04/08 07:20:21;;;;;;;4.22;2.22;;;;;;;9.56;100.00;95124.94;5068602;28;20068;-52
2022/04/08 07:22:51;;;;;;;4.32;2.10;;;;;;;9.50;100.00;95111.50;5067899;28;20075;-55
2022/04/08 07:25:20;;;;;;;3.83;2.20;;;;;;;9.51;100.00;95101.78;5070916;28;20071;-51
2022/04/08 07:27:51;;;;;;;5.15;2.20;;;;;;;9.32;100.00;95102.19;5071418;28;20060;-56
2022/04/08 07:30:21;;;;;;;5.22;2.00;;;;;;;8.94;100.00;95104.59;5071336;28;20071;-50
2022/04/08 07:32:52;;;;;;;3.70;1.95;;;;;;;9.56;100.00;95103.88;5064999;28;20072;-54
2022/04/08 07:35:22;;;;;;;7.43;2.03;;;;;;;9.25;100.00;95099.41;5070166;28;20095;-55
2022/04/08 07:37:51;;;;;;;9.63;2.58;;;;;;;9.11;100.00;95102.75;5065962;28;20412;-55
2022/04/08 07:40:20;;;;;;;2.97;2.00;;;;;;;9.49;100.00;95104.56;5070899;28;20068;-58
2022/04/08 07:42:50;;;;;;;3.83;2.20;;;;;;;9.37;100.00;95105.13;5071485;28;20178;-55
2022/04/08 07:45:18;;;;;;;6.75;2.30;;;;;;;9.30;100.00;95099.72;5071510;28;20071;-56
2022/04/08 07:47:47;;;;;;;3.65;2.22;;;;;;;9.44;100.00;95100.81;5067946;28;20048;-53
2022/04/08 07:50:15;;;;;;;4.95;1.95;;;;;;;9.38;100.00;95096.25;5071855;28;20588;-58
2022/04/08 07:52:44;;;;;;;4.90;2.20;;;;;;;9.98;100.00;95096.44;5070594;28;20083;-56
2022/04/08 07:55:13;;;;;;;4.00;1.92;;;;;;;10.03;100.00;95085.38;5071324;28;20483;-56
2022/04/08 07:57:45;;;;;;;3.35;1.90;;;;;;;10.16;100.00;95079.53;5084305;28;20068;-54
2022/04/08 08:00:17;;;;;;;3.60;1.70;;;;;;;9.72;100.00;95075.69;5073150;28;20063;-57
2022/04/08 08:02:45;;;;;;;4.85;2.17;;;;;;;10.61;100.00;95075.22;5067657;28;20102;-53
2022/04/08 08:05:13;;;;;;;3.22;1.90;;;;;;;10.22;100.00;95079.63;5073405;28;20083;-53
2022/04/08 08:07:47;;;;;;;4.82;1.90;;;;;;;10.52;100.00;95063.94;5070915;28;20836;-51
2022/04/08 08:10:16;;;;;;;3.28;1.80;;;;;;;10.60;100.00;95063.06;5070626;28;20525;-55
2022/04/08 08:12:45;;;;;;;3.28;1.67;;;;;;;10.61;100.00;95054.97;5067932;28;20057;-58
2022/04/08 08:15:16;;;;;;;3.05;1.60;;;;;;;10.49;100.00;95064.28;5068565;28;20066;-58
2022/04/08 08:17:44;;;;;;;3.83;1.80;;;;;;;10.36;100.00;95066.72;5067721;28;20057;-58
2022/04/08 08:20:15;;;;;;;5.00;1.75;;;;;;;10.07;100.00;95052.41;5069333;28;20635;-57
2022/04/08 08:22:44;;;;;;;2.25;1.70;;;;;;;10.32;100.00;95057.50;5068055;28;20079;-58
2022/04/08 08:25:13;;;;;;;5.47;2.35;;;;;;;10.57;100.00;95048.41;5069691;28;20106;-51
2022/04/08 08:27:42;;;;;;;3.78;1.73;;;;;;;10.35;100.00;95055.34;5068564;28;20068;-59
2022/04/08 08:30:13;;;;;;;5.63;1.80;;;;;;;10.27;100.00;95054.59;5069198;28;20064;-58
2022/04/08 08:32:45;;;;;;;2.40;1.70;;;;;;;10.21;100.00;95061.34;5069288;28;20080;-56
2022/04/08 08:35:14;;;;;;;3.17;2.00;;;;;;;10.39;100.00;95056.66;5071306;28;20088;-60
2022/04/08 08:37:43;;;;;;;2.92;1.58;;;;;;;10.19;100.00;95048.38;5070531;28;20041;-59
2022/04/08 08:40:13;;;;;;;2.53;1.80;;;;;;;10.22;100.00;95050.66;5070330;28;20067;-56
2022/04/08 08:42:42;;;;;;;6.35;2.15;;;;;;;10.42;100.00;95045.72;5069957;28;20102;-55
2022/04/08 08:45:13;;;;;;;3.65;1.80;;;;;;;10.72;100.00;95047.59;5070455;28;20060;-57
2022/04/08 08:47:43;;;;;;;4.30;1.95;;;;;;;10.64;100.00;95040.59;5064827;28;20071;-54
2022/04/08 08:50:11;;;;;;;3.97;1.50;;;;;;;10.47;100.00;95042.56;5066457;28;20450;-53
2022/04/08 08:52:41;;;;;;;3.83;1.77;;;;;;;10.39;100.00;95038.19;5070482;28;20060;-57
2022/04/08 08:55:15;;;;;;;3.40;1.70;;;;;;;11.15;100.00;95038.91;5069773;28;20048;-55
2022/04/08 08:57:45;;;;;;;4.10;1.80;;;;;;;11.08;100.00;95026.59;5069999;28;20091;-55
2022/04/08 09:00:16;;;;;;;2.97;1.80;;;;;;;11.01;100.00;95017.78;5070133;28;20510;-58
2022/04/08 09:02:49;;;;;;;4.28;2.13;;;;;;;11.02;100.00;95017.63;5066441;28;20431;-56
2022/04/08 09:05:19;;;;;;;4.18;2.03;;;;;;;10.77;100.00;95014.44;5070938;28;20068;-57
2022/04/08 09:07:55;;;;;;;2.97;1.80;;;;;;;11.29;100.00;95008.22;5069519;28;20052;-56
2022/04/08 09:10:28;;;;;;;3.72;1.70;;;;;;;11.45;100.00;95006.34;5069557;28;20056;-57
2022/04/08 09:12:57;;;;;;;3.10;2.08;;;;;;;11.63;100.00;95010.25;5068092;28;20056;-57
2022/04/08 09:15:26;;;;;;;4.15;1.75;;;;;;;11.28;100.00;95008.38;5069739;28;20446;-56
2022/04/08 09:18:06;;;;;;;3.10;1.90;;;;;;;11.89;100.00;95006.25;5069186;28;20151;-54
2022/04/08 09:20:39;;;;;;;3.22;1.65;;;;;;;11.81;100.00;94999.25;5065243;28;20072;-55
2022/04/08 09:23:08;;;;;;;4.05;1.95;;;;;;;11.69;100.00;94998.09;5068872;28;20052;-56
2022/04/08 09:25:37;;;;;;;2.22;1.50;;;;;;;11.42;100.00;94989.06;5069286;28;20052;-54
2022/04/08 09:28:06;;;;;;;2.45;1.85;;;;;;;10.69;100.00;94993.41;5068867;28;20060;-56
2022/04/08 09:30:34;;;;;;;2.92;1.77;;;;;;;11.07;100.00;94986.22;5065632;28;20068;-54
2022/04/08 09:33:16;;;;;;;4.63;1.70;;;;;;;10.58;100.00;94973.59;5069537;28;20091;-51
2022/04/08 09:35:44;;;;;;;2.80;1.60;;;;;;;11.14;100.00;94970.47;5067790;28;20076;-52
2022/04/08 09:38:16;;;;;;;2.17;1.55;;;;;;;11.13;100.00;94967.03;5069457;28;20570;-54
2022/04/08 09:40:45;;;;;;;1.88;1.50;;;;;;;11.66;100.00;94956.22;5077229;28;20079;-56
2022/04/08 09:43:14;;;;;;;3.40;1.63;;;;;;;11.53;100.00;94948.19;5067201;28;20072;-57
2022/04/08 09:45:43;;;;;;;2.75;1.70;;;;;;;11.88;100.00;94935.94;5068425;28;20067;-56
2022/04/08 09:48:12;;;;;;;4.45;1.80;;;;;;;12.11;100.00;94925.16;5068664;28;20068;-56
2022/04/08 09:50:43;;;;;;;3.45;1.60;;;;;;;12.13;100.00;94917.84;5068833;28;20518;-54
2022/04/08 09:53:13;;;;;;;3.38;1.60;;;;;;;11.61;100.00;94922.47;5064283;28;20551;-59
2022/04/08 09:55:43;;;;;;;2.50;1.60;;;;;;;11.95;100.00;94925.44;5063028;28;20068;-60
2022/04/08 09:58:14;;;;;;;5.80;1.85;;;;;;;12.29;100.00;94914.13;5068341;28;20072;-56
2022/04/08 10:00:44;;;;;;;3.88;2.00;;;;;;;12.33;100.00;94904.78;5069079;28;20064;-56
2022/04/08 10:03:12;;;;;;;3.97;1.92;;;;;;;12.71;100.00;94899.91;5069538;28;20056;-56
2022/04/08 10:05:42;;;;;;;3.10;1.52;;;;;;;12.94;100.00;94894.31;5063732;28;20072;-54
2022/04/08 10:08:11;;;;;;;3.65;1.80;;;;;;;13.40;100.00;94887.56;5069196;28;20087;-55
2022/04/08 10:10:48;;;;;;;1.73;1.60;;;;;;;13.80;100.00;94880.50;5068406;28;20073;-58
2022/04/08 10:13:35;;;;;;;3.33;1.88;;;;;;;13.12;100.00;94877.91;5068986;28;20078;-57
2022/04/08 10:16:11;;;;;;;2.30;1.90;;;;;;;13.52;100.00;94862.09;5068094;28;20565;-57
2022/04/08 10:18:41;;;;;;;3.28;1.70;;;;;;;13.82;100.00;94862.53;5068329;28;20057;-59
2022/04/08 10:21:11;;;;;;;4.25;1.83;;;;;;;13.91;100.00;94853.38;5068587;28;20607;-56
2022/04/08 10:23:40;;;;;;;4.72;1.70;;;;;;;13.92;100.00;94854.19;5068475;28;20076;-56
2022/04/08 10:26:18;;;;;;;3.85;1.73;;;;;;;13.56;100.00;94843.97;5069021;28;20088;-56
2022/04/08 10:28:46;;;;;;;5.63;1.63;;;;;;;13.61;100.00;94834.41;5067991;28;20068;-60
2022/04/08 10:31:16;;;;;;;3.45;1.70;;;;;;;13.89;100.00;94826.25;5068111;28;20064;-59
2022/04/08 10:33:49;;;;;;;2.97;1.98;;;;;;;13.58;100.00;94831.38;5065832;28;20064;-58
2022/04/08 10:36:19;;;;;;;4.78;1.98;;;;;;;13.15;100.00;94831.69;5068504;28;20068;-55
2022/04/08 10:38:47;;;;;;;2.13;1.70;;;;;;;13.60;100.00;94829.34;5067845;28;20076;-59
2022/04/08 10:41:15;;;;;;;3.92;1.90;;;;;;;12.46;100.00;94827.41;5068038;28;20080;-56
2022/04/08 10:43:48;;;;;;;4.75;2.10;;;;;;;12.49;100.00;94824.34;5067982;28;20083;-55
2022/04/08 10:46:29;;;;;;;3.58;2.00;;;;;;;12.78;100.00;94808.19;5068159;28;20072;-54
2022/04/08 10:48:58;;;;;;;6.53;2.10;;;;;;;11.80;100.00;94814.56;5067936;28;20071;-59
2022/04/08 10:51:30;;;;;;;4.55;2.47;;;;;;;11.99;100.00;94808.63;5066486;28;20063;-54
2022/04/08 10:54:04;;;;;;;3.20;2.10;;;;;;;11.81;100.00;94806.47;5065292;28;20483;-56
2022/04/08 10:56:34;;;;;;;3.70;2.10;;;;;;;12.01;100.00;94800.50;5068507;28;20083;-56
2022/04/08 10:59:03;;;;;;;4.18;1.90;;;;;;;12.23;100.00;94777.47;5063689;28;20516;-54
2022/04/08 11:01:34;;;;;;;6.13;2.45;;;;;;;12.13;100.00;94783.09;5071286;28;20544;-54
2022/04/08 11:04:05;;;;;;;5.75;2.47;;;;;;;13.10;100.00;94767.97;5069603;28;20075;-56
2022/04/08 11:06:36;;;;;;;3.45;2.75;;;;;;;13.30;100.00;94766.19;5071877;28;20071;-58
2022/04/08 11:09:05;;;;;;;3.15;2.25;;;;;;;11.31;100.00;94762.63;5071576;28;20652;-52
2022/04/08 11:11:35;;;;;;;2.60;1.98;;;;;;;11.23;100.00;94752.22;5072129;28;20753;-56
2022/04/08 11:14:05;;;;;;;3.13;2.20;;;;;;;11.68;100.00;94753.56;5071309;28;20103;-52
2022/04/08 11:16:34;;;;;;;4.68;2.22;;;;;;;11.12;100.00;94741.16;5069095;28;20084;-59
2022/04/08 11:19:05;;;;;;;3.92;2.05;;;;;;;11.48;100.00;94723.56;5071294;28;20064;-55
2022/04/08 11:21:36;;;;;;;5.18;2.20;;;;;;;11.86;100.00;94719.56;5071584;28;20056;-56
2022/04/08 11:24:06;;;;;;;4.03;3.22;;;;;;;12.69;100.00;94713.34;5068882;28;20061;-55
2022/04/08 11:26:43;;;;;;;7.47;4.78;;;;;;;11.45;100.00;94716.84;5072225;28;20440;-54
2022/04/08 11:29:12;;;;;;;4.18;2.10;;;;;;;11.76;100.00;94697.13;5070725;28;20105;-56
2022/04/08 11:31:41;;;;;;;4.18;2.30;;;;;;;11.41;100.00;94697.94;5064848;28;20079;-55
2022/04/08 11:34:09;;;;;;;3.30;2.35;;;;;;;11.45;100.00;94689.63;5067357;28;20068;-56
2022/04/08 11:36:39;;;;;;;3.55;2.70;;;;;;;11.41;100.00;94697.94;5071172;28;20755;-54
2022/04/08 11:39:08;;;;;;;4.55;2.88;;;;;;;11.32;100.00;94666.59;5065974;28;20056;-57
2022/04/08 11:41:37;;;;;;;3.78;2.55;;;;;;;11.27;100.00;94676.94;5075279;28;20456;-54